createdAt,value
2022-10-28T00:01:25.750Z,8.12
2022-10-28T00:03:56.530Z,8.05
2022-10-28T00:06:28.068Z,8.00
2022-10-28T00:08:56.314Z,7.98
2022-10-28T00:11:30.295Z,7.97
2022-10-28T00:14:02.652Z,7.97
2022-10-28T00:16:34.666Z,7.98
2022-10-28T00:19:04.698Z,7.99
2022-10-28T00:21:35.314Z,8.00
2022-10-28T00:24:03.657Z,8.01
2022-10-28T00:26:33.344Z,8.03
2022-10-28T00:29:06.309Z,8.04
2022-10-28T00:31:36.719Z,8.04
2022-10-28T00:34:11.138Z,8.03
2022-10-28T00:36:41.644Z,8.00
2022-10-28T00:39:13.316Z,7.97
2022-10-28T00:41:44.386Z,7.93
2022-10-28T00:44:51.850Z,7.87
2022-10-28T00:47:39.799Z,7.81
2022-10-28T00:50:38.609Z,7.76
2022-10-28T00:53:13.864Z,7.70
2022-10-28T00:55:44.281Z,7.67
2022-10-28T00:58:14.779Z,7.65
2022-10-28T01:00:42.761Z,7.63
2022-10-28T01:03:10.929Z,7.62
2022-10-28T01:05:42.698Z,7.60
2022-10-28T01:08:10.862Z,7.61
2022-10-28T01:11:08.531Z,7.63
2022-10-28T01:13:44.319Z,7.66
2022-10-28T01:16:34.169Z,7.68
2022-10-28T01:19:24.926Z,7.72
2022-10-28T01:22:22.370Z,7.73
2022-10-28T01:25:14.284Z,7.74
2022-10-28T01:28:06.958Z,7.72
2022-10-28T01:31:04.969Z,7.70
2022-10-28T01:33:37.132Z,7.65
2022-10-28T01:36:15.529Z,7.60
2022-10-28T01:38:54.153Z,7.54
2022-10-28T01:41:36.938Z,7.50
2022-10-28T01:44:15.415Z,7.45
2022-10-28T01:47:08.356Z,7.42
2022-10-28T01:49:46.839Z,7.41
2022-10-28T01:52:18.559Z,7.40
2022-10-28T01:54:50.960Z,7.42
2022-10-28T01:57:19.374Z,7.43
2022-10-28T01:59:48.383Z,7.46
2022-10-28T02:02:18.025Z,7.46
2022-10-28T02:04:45.782Z,7.47
2022-10-28T02:07:15.167Z,7.48
2022-10-28T02:10:04.076Z,7.45
2022-10-28T02:12:35.540Z,7.41
2022-10-28T02:15:25.072Z,7.36
2022-10-28T02:18:08.177Z,7.30
2022-10-28T02:20:52.380Z,7.23
2022-10-28T02:23:39.590Z,7.15
2022-10-28T02:26:18.124Z,7.07
2022-10-28T02:29:03.543Z,6.98
2022-10-28T02:31:40.010Z,6.90
2022-10-28T02:34:09.642Z,6.85
2022-10-28T02:36:43.816Z,6.79
2022-10-28T02:39:12.197Z,6.77
2022-10-28T02:42:01.730Z,6.76
2022-10-28T02:44:34.511Z,6.78
2022-10-28T02:47:09.625Z,6.82
2022-10-28T02:49:41.672Z,6.86
2022-10-28T02:52:11.244Z,6.89
2022-10-28T02:54:45.822Z,6.95
2022-10-28T02:57:18.952Z,6.99
2022-10-28T02:59:57.983Z,7.02
2022-10-28T03:02:27.664Z,7.04
2022-10-28T03:04:55.485Z,7.06
2022-10-28T03:07:23.594Z,7.07
2022-10-28T03:09:51.512Z,7.07
2022-10-28T03:12:19.283Z,7.06
2022-10-28T03:14:47.070Z,7.02
2022-10-28T03:17:14.980Z,6.97
2022-10-28T03:19:42.783Z,6.92
2022-10-28T03:22:10.591Z,6.85
2022-10-28T03:24:38.521Z,6.77
2022-10-28T03:27:07.007Z,6.69
2022-10-28T03:29:35.017Z,6.62
2022-10-28T03:32:02.976Z,6.56
2022-10-28T03:34:30.778Z,6.50
2022-10-28T03:36:58.571Z,6.46
2022-10-28T03:39:26.545Z,6.44
2022-10-28T03:41:54.363Z,6.44
2022-10-28T03:44:22.163Z,6.46
2022-10-28T03:46:50.034Z,6.50
2022-10-28T03:49:17.865Z,6.54
2022-10-28T03:51:45.613Z,6.58
2022-10-28T03:54:13.833Z,6.62
2022-10-28T03:56:41.741Z,6.67
2022-10-28T03:59:10.191Z,6.71
2022-10-28T04:01:38.211Z,6.75
2022-10-28T04:04:06.353Z,6.77
2022-10-28T04:06:34.239Z,6.77
2022-10-28T04:09:02.073Z,6.72
2022-10-28T04:11:29.904Z,6.67
2022-10-28T04:13:57.791Z,6.63
2022-10-28T04:16:25.767Z,6.58
2022-10-28T04:18:53.630Z,6.53
2022-10-28T04:21:22.232Z,6.46
2022-10-28T04:23:50.193Z,6.40
2022-10-28T04:26:18.230Z,6.34
2022-10-28T04:28:46.161Z,6.27
2022-10-28T04:31:14.432Z,6.24
2022-10-28T04:33:42.421Z,6.22
2022-10-28T04:36:10.258Z,6.24
2022-10-28T04:38:38.104Z,6.24
2022-10-28T04:41:05.873Z,6.25
2022-10-28T04:43:33.946Z,6.26
2022-10-28T04:46:05.942Z,6.28
2022-10-28T04:48:34.810Z,6.30
2022-10-28T04:51:03.337Z,6.31
2022-10-28T04:53:31.157Z,6.33
2022-10-28T04:55:59.971Z,6.35
2022-10-28T04:58:28.096Z,6.36
2022-10-28T05:00:56.142Z,6.35
2022-10-28T05:03:24.114Z,6.33
2022-10-28T05:05:51.973Z,6.30
2022-10-28T05:08:19.902Z,6.26
2022-10-28T05:10:50.060Z,6.22
2022-10-28T05:13:18.788Z,6.17
2022-10-28T05:15:50.031Z,6.14
2022-10-28T05:18:18.230Z,6.11
2022-10-28T05:20:46.432Z,6.07
2022-10-28T05:23:14.650Z,6.05
2022-10-28T05:25:42.852Z,6.06
2022-10-28T05:28:10.898Z,6.10
2022-10-28T05:30:39.033Z,6.13
2022-10-28T05:33:06.988Z,6.17
2022-10-28T05:35:34.792Z,6.21
2022-10-28T05:38:03.250Z,6.26
2022-10-28T05:40:33.562Z,6.31
2022-10-28T05:43:02.156Z,6.38
2022-10-28T05:47:58.343Z,6.52
2022-10-28T05:50:29.018Z,6.58
2022-10-28T05:52:57.468Z,6.61
2022-10-28T05:55:28.355Z,6.64
2022-10-28T05:57:57.778Z,6.65
2022-10-28T06:00:27.092Z,6.65
2022-10-28T06:03:07.656Z,6.64
2022-10-28T06:05:39.487Z,6.62
2022-10-28T06:08:07.505Z,6.60
2022-10-28T06:10:39.459Z,6.59
2022-10-28T06:13:07.618Z,6.58
2022-10-28T06:15:37.456Z,6.58
2022-10-28T06:18:05.543Z,6.55
2022-10-28T06:20:33.734Z,6.54
2022-10-28T06:23:01.768Z,6.53
2022-10-28T06:25:32.331Z,6.54
2022-10-28T06:28:01.175Z,6.56
2022-10-28T06:30:29.418Z,6.57
2022-10-28T06:32:57.753Z,6.60
2022-10-28T06:35:26.216Z,6.65
2022-10-28T06:37:56.093Z,6.71
2022-10-28T06:40:28.260Z,6.77
2022-10-28T06:43:07.042Z,6.80
2022-10-28T06:45:42.842Z,6.84
2022-10-28T06:48:25.394Z,6.91
2022-10-28T06:50:58.269Z,7.01
2022-10-28T06:53:45.747Z,7.14
2022-10-28T06:56:14.326Z,7.26
2022-10-28T06:58:52.875Z,7.36
2022-10-28T07:01:34.848Z,7.46
2022-10-28T07:04:16.400Z,7.57
2022-10-28T07:06:57.407Z,7.71
2022-10-28T07:09:26.829Z,7.79
2022-10-28T07:12:05.033Z,7.81
2022-10-28T07:14:38.418Z,7.87
2022-10-28T07:17:09.326Z,7.90
2022-10-28T07:19:44.900Z,7.93
2022-10-28T07:22:16.604Z,7.97
2022-10-28T07:24:48.741Z,8.00
2022-10-28T07:27:24.595Z,8.03
2022-10-28T07:29:53.005Z,8.08
2022-10-28T07:32:23.147Z,8.14
2022-10-28T07:35:41.719Z,8.19
2022-10-28T07:38:27.803Z,8.26
2022-10-28T07:41:04.859Z,8.33
2022-10-28T07:43:55.454Z,8.41
2022-10-28T07:47:46.751Z,8.52
2022-10-28T07:50:47.795Z,8.63
2022-10-28T07:53:20.378Z,8.72
2022-10-28T07:55:59.626Z,8.82
2022-10-28T07:59:07.052Z,8.92
2022-10-28T08:02:31.316Z,9.03
2022-10-28T08:05:57.493Z,9.16
2022-10-28T08:08:55.640Z,9.33
2022-10-28T08:11:37.000Z,9.50
2022-10-28T08:14:41.572Z,9.67
2022-10-28T08:18:21.744Z,9.91
2022-10-28T08:21:47.745Z,10.14
2022-10-28T08:24:40.394Z,10.43
2022-10-28T08:27:16.540Z,10.72
2022-10-28T08:30:09.317Z,10.93
2022-10-28T08:32:38.997Z,11.10
2022-10-28T08:35:16.628Z,11.26
2022-10-28T08:37:53.958Z,11.48
2022-10-28T08:40:36.270Z,11.67
2022-10-28T08:43:40.269Z,11.80
2022-10-28T08:46:55.319Z,11.97
2022-10-28T08:50:20.521Z,12.08
2022-10-28T08:53:29.864Z,12.14
2022-10-28T08:56:46.739Z,12.21
2022-10-28T08:59:59.792Z,12.06
2022-10-28T09:02:58.197Z,12.14
2022-10-28T09:05:40.792Z,12.32
2022-10-28T09:08:36.028Z,12.52
2022-10-28T09:12:51.657Z,12.76
2022-10-28T09:17:14.135Z,12.88
2022-10-28T09:19:54.492Z,12.92
2022-10-28T09:23:00.008Z,13.02
2022-10-28T09:25:55.495Z,13.11
2022-10-28T09:31:57.486Z,13.21
2022-10-28T09:34:43.942Z,13.39
2022-10-28T09:37:26.641Z,13.54
2022-10-28T09:40:07.435Z,13.71
2022-10-28T09:45:18.172Z,14.04
2022-10-28T09:47:55.668Z,14.17
2022-10-28T09:50:29.593Z,14.24
2022-10-28T09:53:17.650Z,14.42
2022-10-28T09:55:46.390Z,14.49
2022-10-28T09:58:14.366Z,14.61
2022-10-28T10:00:43.681Z,14.79
2022-10-28T10:03:11.765Z,14.98
2022-10-28T10:05:49.302Z,15.12
2022-10-28T10:08:19.284Z,15.24
2022-10-28T10:10:51.886Z,15.38
2022-10-28T10:13:27.493Z,15.56
2022-10-28T10:16:01.617Z,15.70
2022-10-28T10:18:34.643Z,15.79
2022-10-28T10:21:06.430Z,15.80
2022-10-28T10:26:15.256Z,16.16
2022-10-28T10:28:48.621Z,16.14
2022-10-28T10:31:26.232Z,16.15
2022-10-28T10:34:03.927Z,16.32
2022-10-28T10:36:56.521Z,16.42
2022-10-28T10:39:38.291Z,16.62
2022-10-28T10:42:17.099Z,16.82
2022-10-28T10:45:07.185Z,17.01
2022-10-28T10:47:38.322Z,17.24
2022-10-28T10:50:23.178Z,17.40
2022-10-28T10:52:54.407Z,17.58
2022-10-28T10:55:34.612Z,17.81
2022-10-28T10:58:11.432Z,17.94
2022-10-28T11:00:49.933Z,18.23
2022-10-28T11:04:02.049Z,18.39
2022-10-28T11:06:55.098Z,18.82
2022-10-28T11:09:35.208Z,19.01
2022-10-28T11:12:32.830Z,19.28
2022-10-28T11:15:56.360Z,19.28
2022-10-28T11:19:10.062Z,19.25
2022-10-28T11:23:04.825Z,19.85
2022-10-28T12:50:22.178Z,24.82
2022-10-28T12:53:16.861Z,25.02
2022-10-28T12:55:52.174Z,25.20
2022-10-28T12:58:30.022Z,25.22
2022-10-28T13:01:02.699Z,25.56
2022-10-28T13:03:30.856Z,26.02
2022-10-28T13:06:32.658Z,25.86
2022-10-28T13:09:36.364Z,25.82
2022-10-28T13:12:31.017Z,25.58
2022-10-28T13:15:18.507Z,26.02
2022-10-28T13:18:05.755Z,26.84
2022-10-28T13:21:05.023Z,27.40
2022-10-28T13:23:57.253Z,27.28
2022-10-28T13:26:35.521Z,27.55
2022-10-28T13:29:08.299Z,27.86
2022-10-28T13:31:45.707Z,27.93
2022-10-28T13:34:30.442Z,27.78
2022-10-28T13:37:03.775Z,27.19
2022-10-28T13:39:41.131Z,26.83
2022-10-28T13:42:31.097Z,26.82
2022-10-28T13:45:01.557Z,27.19
2022-10-28T13:47:43.374Z,27.28
2022-10-28T13:50:16.211Z,27.24
2022-10-28T13:53:08.335Z,27.24
2022-10-28T13:55:44.575Z,27.09
2022-10-28T13:58:31.079Z,26.99
2022-10-28T14:02:01.385Z,26.62
2022-10-28T14:04:39.226Z,26.49
2022-10-28T14:07:30.175Z,26.77
2022-10-28T14:10:16.238Z,26.65
2022-10-28T14:13:02.399Z,26.69
2022-10-28T14:15:39.402Z,26.27
2022-10-28T14:18:42.285Z,26.53
2022-10-28T14:21:12.201Z,26.42
2022-10-28T14:24:08.458Z,26.08
2022-10-28T14:27:15.891Z,25.70
2022-10-28T14:29:49.219Z,25.74
2022-10-28T14:32:41.886Z,25.59
2022-10-28T14:35:33.181Z,25.29
2022-10-28T14:38:29.250Z,25.09
2022-10-28T14:41:30.109Z,24.74
2022-10-28T14:44:23.753Z,24.50
2022-10-28T14:47:12.173Z,24.30
2022-10-28T14:49:42.223Z,24.03
2022-10-28T14:52:16.413Z,23.50
2022-10-28T14:54:50.514Z,22.97
2022-10-28T14:57:22.740Z,22.50
2022-10-28T14:59:52.619Z,21.75
2022-10-28T15:02:24.585Z,21.13
2022-10-28T15:05:24.781Z,20.39
2022-10-28T15:07:54.047Z,19.79
2022-10-28T15:10:27.461Z,19.32
2022-10-28T15:12:58.648Z,18.77
2022-10-28T15:15:31.445Z,18.32
2022-10-28T15:18:02.234Z,18.01
2022-10-28T15:20:33.671Z,17.72
2022-10-28T15:23:21.667Z,17.41
2022-10-28T15:26:11.894Z,17.05
2022-10-28T15:28:43.273Z,16.68
2022-10-28T15:31:11.506Z,16.35
2022-10-28T15:33:42.390Z,16.16
2022-10-28T15:36:18.337Z,15.95
2022-10-28T15:38:51.785Z,15.74
2022-10-28T15:41:42.031Z,15.56
2022-10-28T15:44:27.051Z,15.36
2022-10-28T15:46:57.037Z,15.18
2022-10-28T15:49:37.096Z,15.00
2022-10-28T15:52:32.120Z,14.80
2022-10-28T15:55:03.760Z,14.61
2022-10-28T15:57:47.588Z,14.47
2022-10-28T16:00:23.035Z,14.34
2022-10-28T16:02:58.241Z,14.22
2022-10-28T16:05:46.638Z,14.13
2022-10-28T16:08:20.585Z,13.99
2022-10-28T16:10:57.691Z,13.87
2022-10-28T16:13:30.316Z,13.76
2022-10-28T16:16:03.166Z,13.65
2022-10-28T16:18:33.650Z,13.55
2022-10-28T16:21:04.743Z,13.45
2022-10-28T16:23:38.114Z,13.35
2022-10-28T16:26:06.329Z,13.27
2022-10-28T16:28:34.401Z,13.19
2022-10-28T16:31:02.748Z,13.20
2022-10-28T16:33:37.269Z,13.16
2022-10-28T16:36:05.406Z,13.14
2022-10-28T16:38:33.604Z,13.09
2022-10-28T16:41:03.037Z,13.06
2022-10-28T16:43:31.928Z,13.15
2022-10-28T16:46:00.635Z,13.27
2022-10-28T16:48:30.430Z,13.35
2022-10-28T16:51:02.349Z,13.31
2022-10-28T16:53:30.914Z,13.26
2022-10-28T16:55:59.486Z,13.32
2022-10-28T16:58:29.101Z,13.50
2022-10-28T17:00:57.269Z,13.62
2022-10-28T17:03:25.233Z,13.47
2022-10-28T17:05:53.073Z,13.31
2022-10-28T17:08:36.440Z,13.12
2022-10-28T17:11:15.681Z,13.00
2022-10-28T17:13:43.680Z,12.89
2022-10-28T17:16:13.324Z,12.80
2022-10-28T17:18:44.025Z,12.71
2022-10-28T17:21:12.020Z,12.63
2022-10-28T17:23:40.315Z,12.57
2022-10-28T17:26:09.341Z,12.48
2022-10-28T17:28:40.181Z,12.38
2022-10-28T17:31:09.079Z,12.26
2022-10-28T17:33:37.448Z,12.15
2022-10-28T17:36:08.383Z,12.00
2022-10-28T17:38:36.651Z,11.85
2022-10-28T17:41:04.656Z,11.71
2022-10-28T17:43:34.189Z,11.58
2022-10-28T17:46:05.689Z,11.48
2022-10-28T17:48:34.890Z,11.41
2022-10-28T17:51:03.190Z,11.34
2022-10-28T17:53:31.706Z,11.27
2022-10-28T17:56:04.077Z,11.22
2022-10-28T17:58:33.427Z,11.19
2022-10-28T18:01:04.814Z,11.18
2022-10-28T18:03:38.271Z,11.16
2022-10-28T18:06:10.721Z,11.16
2022-10-28T18:08:41.145Z,11.15
2022-10-28T18:11:12.769Z,11.14
2022-10-28T18:13:44.987Z,11.13
2022-10-28T18:16:15.725Z,11.13
2022-10-28T18:18:43.941Z,11.13
2022-10-28T18:21:12.975Z,11.11
2022-10-28T18:23:41.383Z,11.10
2022-10-28T18:26:13.086Z,11.07
2022-10-28T18:28:43.192Z,11.05
2022-10-28T18:31:14.156Z,11.04
2022-10-28T18:33:46.049Z,11.02
2022-10-28T18:36:16.563Z,10.99
2022-10-28T18:38:44.484Z,10.94
2022-10-28T18:41:14.863Z,10.89
2022-10-28T18:43:43.215Z,10.85
2022-10-28T18:46:13.069Z,10.81
2022-10-28T18:48:41.429Z,10.76
2022-10-28T18:51:11.930Z,10.70
2022-10-28T18:53:42.287Z,10.64
2022-10-28T18:56:13.815Z,10.59
2022-10-28T18:58:42.070Z,10.52
2022-10-28T19:01:13.997Z,10.47
2022-10-28T19:03:42.441Z,10.41
2022-10-28T19:06:13.536Z,10.35
2022-10-28T19:08:41.787Z,10.29
2022-10-28T19:11:12.335Z,10.23
2022-10-28T19:13:42.518Z,10.18
2022-10-28T19:16:10.663Z,10.14
2022-10-28T19:18:38.979Z,10.12
2022-10-28T19:21:12.692Z,10.10
2022-10-28T19:23:41.778Z,10.09
2022-10-28T19:26:11.395Z,10.08
2022-10-28T19:28:42.831Z,10.07
2022-10-28T19:31:13.835Z,10.07
2022-10-28T19:33:43.282Z,10.07
2022-10-28T19:36:25.998Z,10.05
2022-10-28T19:38:55.496Z,10.02
2022-10-28T19:41:27.124Z,9.95
2022-10-28T19:43:58.518Z,9.91
2022-10-28T19:46:29.249Z,9.86
2022-10-28T19:48:59.069Z,9.81
2022-10-28T19:51:30.530Z,9.76
2022-10-28T19:54:02.230Z,9.69
2022-10-28T19:56:32.403Z,9.63
2022-10-28T19:59:02.539Z,9.57
2022-10-28T20:01:34.735Z,9.50
2022-10-28T20:04:03.269Z,9.47
2022-10-28T20:06:33.962Z,9.46
2022-10-28T20:09:02.181Z,9.46
2022-10-28T20:11:33.419Z,9.48
2022-10-28T20:14:04.337Z,9.53
2022-10-28T20:16:33.252Z,9.56
2022-10-28T20:19:01.347Z,9.58
2022-10-28T20:21:31.586Z,9.61
2022-10-28T20:23:59.825Z,9.63
2022-10-28T20:26:32.797Z,9.68
2022-10-28T20:29:02.938Z,9.74
2022-10-28T20:31:32.306Z,9.81
2022-10-28T20:34:03.875Z,9.82
2022-10-28T20:36:36.073Z,9.77
2022-10-28T20:39:13.921Z,9.70
2022-10-28T20:41:43.469Z,9.63
2022-10-28T20:44:12.006Z,9.57
2022-10-28T20:46:40.737Z,9.49
2022-10-28T20:49:08.937Z,9.39
2022-10-28T20:51:37.180Z,9.28
2022-10-28T20:54:05.659Z,9.18
2022-10-28T20:56:37.049Z,9.09
2022-10-28T20:59:05.826Z,9.05
2022-10-28T21:01:36.954Z,9.04
2022-10-28T21:04:08.852Z,9.06
2022-10-28T21:06:38.408Z,9.09
2022-10-28T21:09:07.081Z,9.12
2022-10-28T21:11:35.202Z,9.14
2022-10-28T21:14:03.208Z,9.15
2022-10-28T21:16:31.461Z,9.17
2022-10-28T21:18:59.719Z,9.18
2022-10-28T21:21:28.569Z,9.18
2022-10-28T21:24:03.771Z,9.18
2022-10-28T21:26:35.001Z,9.18
2022-10-28T21:29:03.390Z,9.19
2022-10-28T21:31:31.389Z,9.19
2022-10-28T21:34:01.799Z,9.18
2022-10-28T21:36:32.291Z,9.16
2022-10-28T21:39:00.193Z,9.13
2022-10-28T21:41:28.072Z,9.09
2022-10-28T21:43:56.038Z,9.06
2022-10-28T21:46:24.369Z,9.01
2022-10-28T21:48:52.742Z,8.98
2022-10-28T21:51:20.688Z,8.94
2022-10-28T21:53:49.348Z,8.92
2022-10-28T21:56:19.668Z,8.92
2022-10-28T21:58:52.175Z,8.94
2022-10-28T22:01:25.190Z,8.96
2022-10-28T22:03:55.613Z,8.95
2022-10-28T22:06:23.500Z,8.93
2022-10-28T22:08:53.583Z,8.90
2022-10-28T22:11:23.877Z,8.89
2022-10-28T22:13:58.108Z,8.84
2022-10-28T22:16:27.455Z,8.79
2022-10-28T22:18:57.279Z,8.76
2022-10-28T22:21:27.998Z,8.71
2022-10-28T22:23:56.134Z,8.66
2022-10-28T22:26:33.733Z,8.63
2022-10-28T22:29:01.705Z,8.56
2022-10-28T22:31:31.517Z,8.50
2022-10-28T22:34:00.293Z,8.45
2022-10-28T22:36:30.874Z,8.42
2022-10-28T22:38:59.121Z,8.41
2022-10-28T22:41:32.805Z,8.41
2022-10-28T22:44:02.349Z,8.41
2022-10-28T22:46:33.889Z,8.42
2022-10-28T22:49:01.770Z,8.42
2022-10-28T22:51:29.562Z,8.40
2022-10-28T22:53:57.898Z,8.38
2022-10-28T22:56:27.558Z,8.35
2022-10-28T22:58:57.904Z,8.31
2022-10-28T23:01:27.764Z,8.28
2022-10-28T23:03:56.325Z,8.24
2022-10-28T23:06:26.874Z,8.21
2022-10-28T23:08:55.066Z,8.17
2022-10-28T23:11:23.697Z,8.13
2022-10-28T23:13:54.000Z,8.10
2022-10-28T23:16:23.601Z,8.10
2022-10-28T23:18:53.682Z,8.10
2022-10-28T23:21:24.315Z,8.10
2022-10-28T23:23:54.437Z,8.11
2022-10-28T23:26:24.567Z,8.13
2022-10-28T23:28:55.229Z,8.14
2022-10-28T23:31:24.145Z,8.16
2022-10-28T23:33:53.965Z,8.16
2022-10-28T23:36:22.882Z,8.15
2022-10-28T23:38:51.420Z,8.12
2022-10-28T23:41:21.277Z,8.09
2022-10-28T23:43:50.577Z,8.03
2022-10-28T23:46:18.545Z,7.98
2022-10-28T23:48:46.589Z,7.94
2022-10-28T23:51:14.924Z,7.89
2022-10-28T23:53:42.741Z,7.85
2022-10-28T23:56:10.585Z,7.83
2022-10-28T23:58:38.462Z,7.83
